createdAt,value
2023-04-22T00:01:59.593Z,97.20
2023-04-22T00:04:29.155Z,97.30
2023-04-22T00:06:57.614Z,97.30
2023-04-22T00:09:25.667Z,97.20
2023-04-22T00:11:53.800Z,97.00
2023-04-22T00:14:21.723Z,97.20
2023-04-22T00:16:49.731Z,97.40
2023-04-22T00:19:17.744Z,97.70
2023-04-22T00:21:47.052Z,97.90
2023-04-22T00:24:15.418Z,98.20
2023-04-22T00:26:43.427Z,97.80
2023-04-22T00:29:11.404Z,97.60
2023-04-22T00:31:39.466Z,97.40
2023-04-22T00:34:07.428Z,97.30
2023-04-22T00:36:35.432Z,97.40
2023-04-22T00:39:06.300Z,97.50
2023-04-22T00:41:34.522Z,98.10
2023-04-22T00:44:02.788Z,98.50
2023-04-22T00:46:31.760Z,98.90
2023-04-22T00:49:00.184Z,99.60
2023-04-22T00:51:28.188Z,99.20
2023-04-22T00:53:56.411Z,99.00
2023-04-22T00:56:27.587Z,98.50
2023-04-22T00:58:56.345Z,98.20
2023-04-22T01:01:24.802Z,98.10
2023-04-22T01:03:53.624Z,98.10
2023-04-22T01:06:23.219Z,98.00
2023-04-22T01:08:51.296Z,98.50
2023-04-22T01:11:19.740Z,98.40
2023-04-22T01:13:49.036Z,98.50
2023-04-22T01:16:17.207Z,98.40
2023-04-22T01:18:45.392Z,98.00
2023-04-22T01:21:13.483Z,97.80
2023-04-22T01:23:43.550Z,97.80
2023-04-22T01:26:11.620Z,97.90
2023-04-22T01:28:40.322Z,98.30
2023-04-22T01:31:08.515Z,98.40
2023-04-22T01:33:36.583Z,98.50
2023-04-22T01:36:04.753Z,98.60
2023-04-22T01:38:33.650Z,98.60
2023-04-22T01:41:03.391Z,98.70
2023-04-22T01:43:32.248Z,98.70
2023-04-22T01:46:02.381Z,99.10
2023-04-22T01:48:30.413Z,98.50
2023-04-22T01:50:58.425Z,98.20
2023-04-22T01:53:26.495Z,98.60
2023-04-22T01:55:54.490Z,98.50
2023-04-22T01:58:23.816Z,98.40
2023-04-22T02:00:51.797Z,98.50
2023-04-22T02:03:19.887Z,98.50
2023-04-22T02:05:47.980Z,98.40
2023-04-22T02:08:15.962Z,98.20
2023-04-22T02:10:44.009Z,98.20
2023-04-22T02:13:12.027Z,97.90
2023-04-22T02:15:41.417Z,98.10
2023-04-22T02:18:10.142Z,97.90
2023-04-22T02:20:38.280Z,98.10
2023-04-22T02:23:06.494Z,98.00
2023-04-22T02:25:34.493Z,98.10
2023-04-22T02:28:02.470Z,98.20
2023-04-22T02:30:30.694Z,98.20
2023-04-22T02:33:00.070Z,98.10
2023-04-22T02:35:28.105Z,98.00
2023-04-22T02:37:56.118Z,97.80
2023-04-22T02:40:24.323Z,97.90
2023-04-22T02:42:52.639Z,98.10
2023-04-22T02:45:20.839Z,98.10
2023-04-22T02:47:48.843Z,98.30
2023-04-22T02:50:18.363Z,98.40
2023-04-22T02:52:46.333Z,98.30
2023-04-22T02:55:14.476Z,98.10
2023-04-22T02:57:42.481Z,98.10
2023-04-22T03:00:11.380Z,97.70
2023-04-22T03:02:39.608Z,98.00
2023-04-22T03:05:08.114Z,98.10
2023-04-22T03:07:37.596Z,98.00
2023-04-22T03:10:06.486Z,98.00
2023-04-22T03:12:34.443Z,97.90
2023-04-22T03:15:02.422Z,97.90
2023-04-22T03:17:30.446Z,97.80
2023-04-22T03:19:58.421Z,98.10
2023-04-22T03:22:26.596Z,98.50
2023-04-22T03:24:56.011Z,98.40
2023-04-22T03:27:24.025Z,98.60
2023-04-22T03:29:52.015Z,98.20
2023-04-22T03:32:20.099Z,98.50
2023-04-22T03:34:48.052Z,98.70
2023-04-22T03:37:16.013Z,98.20
2023-04-22T03:39:43.983Z,97.90
2023-04-22T03:42:14.700Z,97.90
2023-04-22T03:44:42.676Z,98.00
2023-04-22T03:47:10.758Z,98.10
2023-04-22T03:49:39.488Z,98.40
2023-04-22T03:52:07.829Z,98.20
2023-04-22T03:54:35.863Z,97.50
2023-04-22T03:57:03.845Z,97.40
2023-04-22T03:59:33.130Z,97.50
2023-04-22T04:02:01.252Z,97.60
2023-04-22T04:04:29.633Z,97.70
2023-04-22T04:06:58.037Z,97.60
2023-04-22T04:09:26.030Z,97.70
2023-04-22T04:11:54.022Z,97.90
2023-04-22T04:14:22.770Z,98.10
2023-04-22T04:16:52.346Z,98.00
2023-04-22T04:19:20.322Z,97.80
2023-04-22T04:21:48.604Z,97.70
2023-04-22T04:24:16.567Z,97.80
2023-04-22T04:26:44.533Z,97.60
2023-04-22T04:29:14.054Z,97.90
2023-04-22T04:31:42.877Z,98.10
2023-04-22T04:34:12.628Z,98.10
2023-04-22T04:36:40.819Z,98.30
2023-04-22T04:39:09.630Z,98.20
2023-04-22T04:41:38.668Z,98.20
2023-04-22T04:44:06.877Z,98.10
2023-04-22T04:46:37.516Z,98.50
2023-04-22T04:49:05.856Z,98.50
2023-04-22T04:51:35.196Z,98.50
2023-04-22T04:54:03.205Z,98.40
2023-04-22T04:56:31.647Z,98.30
2023-04-22T04:58:59.608Z,98.50
2023-04-22T05:01:27.643Z,98.40
2023-04-22T05:03:55.781Z,99.10
2023-04-22T05:06:23.975Z,99.30
2023-04-22T05:08:53.315Z,99.30
2023-04-22T05:11:21.428Z,99.20
2023-04-22T05:13:49.430Z,99.70
2023-04-22T05:16:17.486Z,99.40
2023-04-22T05:18:45.483Z,99.30
2023-04-22T05:21:13.442Z,99.80
2023-04-22T05:23:41.493Z,99.90
2023-04-22T05:26:10.812Z,99.90
2023-04-22T05:28:38.839Z,99.90
2023-04-22T05:31:07.403Z,99.90
2023-04-22T05:33:35.340Z,99.90
2023-04-22T05:36:03.326Z,99.90
2023-04-22T05:38:31.384Z,99.10
2023-04-22T05:40:59.670Z,99.40
2023-04-22T05:43:29.389Z,98.80
2023-04-22T05:45:57.830Z,98.50
2023-04-22T05:48:26.674Z,98.10
2023-04-22T05:50:55.969Z,98.00
2023-04-22T05:53:24.607Z,98.00
2023-04-22T05:55:53.623Z,96.80
2023-04-22T05:58:22.335Z,95.90
2023-04-22T06:00:53.463Z,95.60
2023-04-22T06:03:22.270Z,96.00
2023-04-22T06:05:51.208Z,96.30
2023-04-22T06:08:19.768Z,96.40
2023-04-22T06:10:47.798Z,96.80
2023-04-22T06:13:17.700Z,96.60
2023-04-22T06:15:46.588Z,96.00
2023-04-22T06:18:16.984Z,94.40
2023-04-22T06:20:45.891Z,93.60
2023-04-22T06:23:16.117Z,94.50
2023-04-22T06:25:45.544Z,93.20
2023-04-22T06:28:13.990Z,92.80
2023-04-22T06:30:44.054Z,91.70
2023-04-22T06:33:13.606Z,92.10
2023-04-22T06:35:44.805Z,91.50
2023-04-22T06:38:13.568Z,89.10
2023-04-22T06:40:41.935Z,85.60
2023-04-22T06:43:09.923Z,82.80
2023-04-22T06:45:37.959Z,81.80
2023-04-22T06:48:06.037Z,81.50
2023-04-22T06:50:33.988Z,80.60
2023-04-22T06:53:03.331Z,81.40
2023-04-22T06:55:31.386Z,79.60
2023-04-22T06:57:59.351Z,79.40
2023-04-22T07:00:28.101Z,79.40
2023-04-22T07:02:56.220Z,79.40
2023-04-22T07:05:24.272Z,78.60
2023-04-22T07:07:52.422Z,80.20
2023-04-22T07:10:22.092Z,79.40
2023-04-22T07:12:50.046Z,80.60
2023-04-22T07:15:18.143Z,80.70
2023-04-22T07:17:46.131Z,80.60
2023-04-22T07:20:14.163Z,80.50
2023-04-22T07:22:42.082Z,81.40
2023-04-22T07:25:11.028Z,80.20
2023-04-22T07:27:40.427Z,81.00
2023-04-22T07:30:10.116Z,80.40
2023-04-22T07:32:38.680Z,80.80
2023-04-22T07:35:07.976Z,81.80
2023-04-22T07:37:36.046Z,81.10
2023-04-22T07:40:04.193Z,81.00
2023-04-22T07:42:32.210Z,81.90
2023-04-22T07:45:01.589Z,81.60
2023-04-22T07:47:29.619Z,80.40
2023-04-22T07:49:58.031Z,81.20
2023-04-22T07:52:26.686Z,81.40
2023-04-22T07:54:54.803Z,82.10
2023-04-22T07:57:22.783Z,83.40
2023-04-22T07:59:51.008Z,80.50
2023-04-22T08:02:20.599Z,81.60
2023-04-22T08:04:48.680Z,82.20
2023-04-22T08:07:31.821Z,83.10
2023-04-22T08:10:01.509Z,82.60
2023-04-22T08:12:29.537Z,80.40
2023-04-22T08:14:58.046Z,82.20
2023-04-22T08:17:27.960Z,82.50
2023-04-22T08:19:55.957Z,82.10
2023-04-22T08:22:24.005Z,82.70
2023-04-22T08:24:51.970Z,81.80
2023-04-22T08:27:21.956Z,84.30
2023-04-22T08:29:49.893Z,82.60
2023-04-22T08:32:19.778Z,80.80
2023-04-22T08:34:51.929Z,82.10
2023-04-22T08:37:22.073Z,82.30
2023-04-22T08:39:50.081Z,83.30
2023-04-22T08:42:18.290Z,83.00
2023-04-22T08:44:47.662Z,80.50
2023-04-22T08:47:16.746Z,82.00
2023-04-22T08:49:47.716Z,80.80
2023-04-22T08:52:17.210Z,83.20
2023-04-22T08:54:45.399Z,81.60
2023-04-22T08:57:14.918Z,81.80
2023-04-22T08:59:43.681Z,79.40
2023-04-22T09:02:19.052Z,79.30
2023-04-22T09:04:48.933Z,80.90
2023-04-22T09:07:22.261Z,82.30
2023-04-22T09:09:50.595Z,80.90
2023-04-22T09:12:19.269Z,80.00
2023-04-22T09:14:47.506Z,82.00
2023-04-22T09:17:18.585Z,80.10
2023-04-22T09:19:47.146Z,78.80
2023-04-22T09:22:16.178Z,79.10
2023-04-22T09:24:51.100Z,82.10
2023-04-22T09:27:19.276Z,81.10
2023-04-22T09:29:50.805Z,80.40
2023-04-22T09:32:19.350Z,80.10
2023-04-22T09:34:52.223Z,81.10
2023-04-22T09:37:23.882Z,80.10
2023-04-22T09:39:53.967Z,81.30
2023-04-22T09:42:22.869Z,81.00
2023-04-22T09:44:52.984Z,80.70
2023-04-22T09:47:21.377Z,80.10
2023-04-22T09:49:49.657Z,81.00
2023-04-22T09:52:26.790Z,79.80
2023-04-22T09:54:56.184Z,82.20
2023-04-22T09:57:24.446Z,80.70
2023-04-22T09:59:52.995Z,81.20
2023-04-22T10:02:30.299Z,80.70
2023-04-22T10:04:58.897Z,79.20
2023-04-22T10:07:31.840Z,79.00
2023-04-22T10:10:01.417Z,77.60
2023-04-22T10:12:35.502Z,80.20
2023-04-22T10:15:04.323Z,79.40
2023-04-22T10:17:34.859Z,78.60
2023-04-22T10:20:05.355Z,78.20
2023-04-22T10:22:35.436Z,79.10
2023-04-22T10:25:05.443Z,80.80
2023-04-22T10:27:33.451Z,78.70
2023-04-22T10:30:02.314Z,80.00
2023-04-22T10:32:30.835Z,79.80
2023-04-22T10:35:10.744Z,80.10
2023-04-22T10:37:41.943Z,79.10
2023-04-22T10:40:16.067Z,79.70
2023-04-22T10:42:48.951Z,80.80
2023-04-22T10:45:17.134Z,78.50
2023-04-22T10:47:46.102Z,79.00
2023-04-22T10:50:26.431Z,78.50
2023-04-22T10:52:58.327Z,79.00
2023-04-22T10:55:47.943Z,79.70
2023-04-22T10:58:21.124Z,79.50
2023-04-22T11:00:54.511Z,79.90
2023-04-22T11:03:28.908Z,79.30
2023-04-22T11:06:17.274Z,79.20
2023-04-22T11:08:47.071Z,77.90
2023-04-22T11:11:19.027Z,78.10
2023-04-22T11:13:50.596Z,79.80
2023-04-22T11:16:22.475Z,79.00
2023-04-22T11:18:51.174Z,77.80
2023-04-22T11:21:19.578Z,79.70
2023-04-22T11:23:51.727Z,78.70
2023-04-22T11:26:34.732Z,79.10
2023-04-22T11:29:02.911Z,78.90
2023-04-22T11:31:31.003Z,76.40
2023-04-22T11:34:00.462Z,75.90
2023-04-22T11:36:28.739Z,77.40
2023-04-22T11:38:57.053Z,77.30
2023-04-22T11:41:26.496Z,76.90
2023-04-22T11:43:55.592Z,76.90
2023-04-22T11:46:30.483Z,76.20
2023-04-22T11:49:13.353Z,76.40
2023-04-22T11:51:53.953Z,76.00
2023-04-22T11:54:34.183Z,76.90
2023-04-22T11:57:06.754Z,74.60
2023-04-22T11:59:34.784Z,73.60
2023-04-22T12:02:07.216Z,73.40
2023-04-22T12:04:40.177Z,74.20
2023-04-22T12:07:08.656Z,74.10
2023-04-22T12:09:36.837Z,74.60
2023-04-22T12:12:06.816Z,75.00
2023-04-22T12:14:35.169Z,76.40
2023-04-22T12:17:05.423Z,75.60
2023-04-22T12:19:33.496Z,72.30
2023-04-22T12:22:02.095Z,72.90
2023-04-22T12:24:31.173Z,72.70
2023-04-22T12:26:59.624Z,72.50
2023-04-22T12:29:33.673Z,72.90
2023-04-22T12:32:02.024Z,72.20
2023-04-22T12:34:30.058Z,72.30
2023-04-22T12:36:58.084Z,73.20
2023-04-22T12:39:26.251Z,72.90
2023-04-22T12:41:54.222Z,74.90
2023-04-22T12:44:24.947Z,74.50
2023-04-22T12:46:54.740Z,74.30
2023-04-22T12:49:22.810Z,75.60
2023-04-22T12:51:51.316Z,76.50
2023-04-22T12:54:20.600Z,75.60
2023-04-22T12:56:49.738Z,74.00
2023-04-22T12:59:17.768Z,73.70
2023-04-22T13:01:45.924Z,74.30
2023-04-22T13:04:15.618Z,74.10
2023-04-22T13:06:44.379Z,75.00
2023-04-22T13:09:13.019Z,76.00
2023-04-22T13:11:41.364Z,73.80
2023-04-22T13:14:09.659Z,71.20
2023-04-22T13:16:37.938Z,68.10
2023-04-22T13:19:05.996Z,69.60
2023-04-22T13:21:35.808Z,71.40
2023-04-22T13:24:03.856Z,69.50
2023-04-22T13:26:32.460Z,69.50
2023-04-22T13:29:02.620Z,67.20
2023-04-22T13:31:31.152Z,67.00
2023-04-22T13:33:59.712Z,69.20
2023-04-22T13:36:27.809Z,69.60
2023-04-22T13:38:59.182Z,68.30
2023-04-22T13:41:27.279Z,66.60
2023-04-22T13:43:56.045Z,69.70
2023-04-22T13:46:25.031Z,68.40
2023-04-22T13:48:53.201Z,66.90
2023-04-22T13:51:22.180Z,65.30
2023-04-22T13:53:50.537Z,65.10
2023-04-22T13:56:20.669Z,65.30
2023-04-22T13:58:49.107Z,65.30
2023-04-22T14:01:17.802Z,66.50
2023-04-22T14:03:47.591Z,65.90
2023-04-22T14:06:16.654Z,65.50
2023-04-22T14:08:47.374Z,64.60
2023-04-22T14:11:26.554Z,66.50
2023-04-22T14:13:56.289Z,65.90
2023-04-22T14:16:25.971Z,66.50
2023-04-22T14:18:55.837Z,67.30
2023-04-22T14:21:25.617Z,67.10
2023-04-22T14:23:55.082Z,66.50
2023-04-22T14:26:23.047Z,66.00
2023-04-22T14:28:51.032Z,66.30
2023-04-22T14:31:20.601Z,65.60
2023-04-22T14:33:48.721Z,62.80
2023-04-22T14:36:16.998Z,64.30
2023-04-22T14:38:44.999Z,65.70
2023-04-22T14:41:13.268Z,65.70
2023-04-22T14:43:41.204Z,66.50
2023-04-22T14:46:09.242Z,66.30
2023-04-22T14:48:39.332Z,66.10
2023-04-22T14:51:07.360Z,67.70
2023-04-22T14:53:35.581Z,68.00
2023-04-22T14:56:03.546Z,68.10
2023-04-22T14:58:31.839Z,67.20
2023-04-22T15:01:00.232Z,66.80
2023-04-22T15:03:28.791Z,67.10
2023-04-22T15:05:59.057Z,66.70
2023-04-22T15:08:27.915Z,66.20
2023-04-22T15:10:56.039Z,67.20
2023-04-22T15:13:24.474Z,65.50
2023-04-22T15:15:52.843Z,66.00
2023-04-22T15:18:21.813Z,65.80
2023-04-22T15:20:49.870Z,66.60
2023-04-22T15:23:19.276Z,66.40
2023-04-22T15:25:47.578Z,67.60
2023-04-22T15:28:15.829Z,67.80
2023-04-22T15:30:43.916Z,67.90
2023-04-22T15:33:12.195Z,68.20
2023-04-22T15:35:42.399Z,68.00
2023-04-22T15:38:11.122Z,68.50
2023-04-22T15:40:40.647Z,67.70
2023-04-22T15:43:09.014Z,66.80
2023-04-22T15:45:37.421Z,67.50
2023-04-22T15:48:05.966Z,67.70
2023-04-22T15:50:34.095Z,66.80
2023-04-22T15:53:02.098Z,67.60
2023-04-22T15:55:30.211Z,66.90
2023-04-22T15:57:59.692Z,67.80
2023-04-22T16:00:28.032Z,68.80
2023-04-22T16:02:56.431Z,68.00
2023-04-22T16:05:25.392Z,67.00
2023-04-22T16:07:53.896Z,66.80
2023-04-22T16:10:22.812Z,67.10
2023-04-22T16:12:50.843Z,68.20
2023-04-22T16:15:22.485Z,68.60
2023-04-22T16:17:50.536Z,69.10
2023-04-22T16:20:18.644Z,69.10
2023-04-22T16:22:47.744Z,68.90
2023-04-22T16:25:15.754Z,69.50
2023-04-22T16:27:43.795Z,69.20
2023-04-22T16:30:14.318Z,69.70
2023-04-22T16:32:45.677Z,69.70
2023-04-22T16:35:13.691Z,70.50
2023-04-22T16:37:41.692Z,71.40
2023-04-22T16:40:10.684Z,71.70
2023-04-22T16:42:38.715Z,72.20
2023-04-22T16:45:07.883Z,72.70
2023-04-22T16:47:36.003Z,73.80
2023-04-22T16:50:06.236Z,74.00
2023-04-22T16:52:34.532Z,73.70
2023-04-22T16:55:02.696Z,73.80
2023-04-22T16:57:30.833Z,74.50
2023-04-22T16:59:59.042Z,75.20
2023-04-22T17:02:27.296Z,74.90
2023-04-22T17:04:55.322Z,75.30
2023-04-22T17:07:24.878Z,75.60
2023-04-22T17:09:52.835Z,76.70
2023-04-22T17:12:21.085Z,77.10
2023-04-22T17:14:49.113Z,77.40
2023-04-22T17:17:17.256Z,77.90
2023-04-22T17:19:45.249Z,78.90
2023-04-22T17:22:13.225Z,78.60
2023-04-22T17:24:42.747Z,79.20
2023-04-22T17:27:10.751Z,79.50
2023-04-22T17:29:38.962Z,79.60
2023-04-22T17:32:07.543Z,79.90
2023-04-22T17:34:35.890Z,79.80
2023-04-22T17:37:04.099Z,79.90
2023-04-22T17:39:32.288Z,79.90
2023-04-22T17:42:02.386Z,80.40
2023-04-22T17:44:31.148Z,80.60
2023-04-22T17:46:59.260Z,80.90
2023-04-22T17:49:27.420Z,81.10
2023-04-22T17:51:55.485Z,81.40
2023-04-22T17:54:24.325Z,81.50
2023-04-22T17:56:52.465Z,81.70
2023-04-22T17:59:21.866Z,82.10
2023-04-22T18:01:49.922Z,82.20
2023-04-22T18:04:18.096Z,82.10
2023-04-22T18:06:46.096Z,82.20
2023-04-22T18:09:14.314Z,83.00
2023-04-22T18:11:42.388Z,83.20
2023-04-22T18:14:11.018Z,83.50
2023-04-22T18:16:40.656Z,83.60
2023-04-22T18:19:08.740Z,83.90
2023-04-22T18:21:39.711Z,84.20
2023-04-22T18:24:09.775Z,84.40
2023-04-22T18:26:37.737Z,84.50
2023-04-22T18:29:08.621Z,84.80
2023-04-22T18:31:36.729Z,84.90
2023-04-22T18:34:08.064Z,85.50
2023-04-22T18:36:36.097Z,85.50
2023-04-22T18:39:05.457Z,85.50
2023-04-22T18:41:33.596Z,85.90
2023-04-22T18:44:01.679Z,85.90
2023-04-22T18:46:29.730Z,86.10
2023-04-22T18:48:57.875Z,86.10
2023-04-22T18:51:27.678Z,86.20
2023-04-22T18:53:55.630Z,86.50
2023-04-22T18:56:23.927Z,86.50
2023-04-22T18:58:52.581Z,86.50
2023-04-22T19:01:20.819Z,86.90
2023-04-22T19:03:49.535Z,87.00
2023-04-22T19:06:17.744Z,87.10
2023-04-22T19:08:48.685Z,86.90
2023-04-22T19:11:17.319Z,86.80
2023-04-22T19:13:46.320Z,86.90
2023-04-22T19:16:14.475Z,87.00
2023-04-22T19:18:43.021Z,86.70
2023-04-22T19:21:11.302Z,86.90
2023-04-22T19:23:40.688Z,87.10
2023-04-22T19:26:10.357Z,87.20
2023-04-22T19:28:38.613Z,87.30
2023-04-22T19:31:07.581Z,87.30
2023-04-22T19:33:36.089Z,87.00
2023-04-22T19:36:04.693Z,86.90
2023-04-22T19:38:32.765Z,87.30
2023-04-22T19:41:01.050Z,87.00
2023-04-22T19:43:30.778Z,86.90
2023-04-22T19:45:59.052Z,87.10
2023-04-22T19:48:27.857Z,86.90
2023-04-22T19:50:56.378Z,86.80
2023-04-22T19:53:24.854Z,86.80
2023-04-22T19:55:53.929Z,86.60
2023-04-22T19:58:23.216Z,86.20
2023-04-22T20:00:53.408Z,85.90
2023-04-22T20:03:22.588Z,86.40
2023-04-22T20:05:51.234Z,86.70
2023-04-22T20:08:20.489Z,86.90
2023-04-22T20:10:50.085Z,88.40
2023-04-22T20:13:19.614Z,88.40
2023-04-22T20:15:48.110Z,89.40
2023-04-22T20:18:19.489Z,89.40
2023-04-22T20:20:49.800Z,89.80
2023-04-22T20:23:23.031Z,90.50
2023-04-22T20:25:52.497Z,90.70
2023-04-22T20:28:20.771Z,90.70
2023-04-22T20:30:49.588Z,90.80
2023-04-22T20:33:20.738Z,91.20
2023-04-22T20:35:51.096Z,91.70
2023-04-22T20:38:20.327Z,91.30
2023-04-22T20:40:48.946Z,91.20
2023-04-22T20:43:17.065Z,91.40
2023-04-22T20:45:45.350Z,91.50
2023-04-22T20:48:13.381Z,91.50
2023-04-22T20:50:43.233Z,92.00
2023-04-22T20:53:11.590Z,91.90
2023-04-22T20:55:39.743Z,92.00
2023-04-22T20:58:07.991Z,91.90
2023-04-22T21:00:36.196Z,91.70
2023-04-22T21:03:08.695Z,92.10
2023-04-22T21:05:41.129Z,91.70
2023-04-22T21:08:22.790Z,91.60
2023-04-22T21:10:52.288Z,91.90
2023-04-22T21:13:20.833Z,92.00
2023-04-22T21:15:56.223Z,91.80
2023-04-22T21:18:25.829Z,91.90
2023-04-22T21:20:56.215Z,91.80
2023-04-22T21:23:26.717Z,92.00
2023-04-22T21:25:56.218Z,92.10
2023-04-22T21:28:24.736Z,91.90
2023-04-22T21:30:53.260Z,91.90
2023-04-22T21:33:21.356Z,92.00
2023-04-22T21:35:49.852Z,91.90
2023-04-22T21:38:19.576Z,92.10
2023-04-22T21:40:49.101Z,92.10
2023-04-22T21:43:17.101Z,92.20
2023-04-22T21:45:45.339Z,92.30
2023-04-22T21:48:13.364Z,92.30
2023-04-22T21:50:41.367Z,92.00
2023-04-22T21:53:09.685Z,91.40
2023-04-22T21:55:37.827Z,91.70
2023-04-22T21:58:07.512Z,92.00
2023-04-22T22:00:37.786Z,92.30
2023-04-22T22:03:06.955Z,92.10
2023-04-22T22:05:35.338Z,92.20
2023-04-22T22:08:04.102Z,92.70
2023-04-22T22:10:32.226Z,93.60
2023-04-22T22:13:00.760Z,93.90
2023-04-22T22:15:30.398Z,94.20
2023-04-22T22:17:58.743Z,94.10
2023-04-22T22:20:27.164Z,93.70
2023-04-22T22:22:55.342Z,93.40
2023-04-22T22:25:23.783Z,93.60
2023-04-22T22:27:51.860Z,94.30
2023-04-22T22:30:21.640Z,94.50
2023-04-22T22:32:51.134Z,94.80
2023-04-22T22:35:19.766Z,94.60
2023-04-22T22:37:47.795Z,94.40
2023-04-22T22:40:16.401Z,94.90
2023-04-22T22:42:44.491Z,94.80
2023-04-22T22:45:12.929Z,94.80
2023-04-22T22:47:41.108Z,94.70
2023-04-22T22:50:11.388Z,94.60
2023-04-22T22:52:39.929Z,94.60
2023-04-22T22:55:08.633Z,94.70
2023-04-22T22:57:36.608Z,95.10
2023-04-22T23:00:06.868Z,95.30
2023-04-22T23:02:35.040Z,95.60
2023-04-22T23:05:04.505Z,96.20
2023-04-22T23:07:33.850Z,96.10
2023-04-22T23:10:01.944Z,96.10
2023-04-22T23:12:29.986Z,95.70
2023-04-22T23:14:57.912Z,95.20
2023-04-22T23:17:26.169Z,95.90
2023-04-22T23:19:56.242Z,96.30
2023-04-22T23:22:25.401Z,95.90
2023-04-22T23:24:57.066Z,96.10
2023-04-22T23:27:26.841Z,96.20
2023-04-22T23:29:57.341Z,96.90
2023-04-22T23:32:28.290Z,96.50
2023-04-22T23:34:59.013Z,96.50
2023-04-22T23:37:30.089Z,96.30
2023-04-22T23:40:02.161Z,96.30
2023-04-22T23:42:31.322Z,96.00
2023-04-22T23:44:59.659Z,96.50
2023-04-22T23:47:29.698Z,97.20
2023-04-22T23:49:59.281Z,97.20
2023-04-22T23:52:28.463Z,97.10
2023-04-22T23:55:00.739Z,97.20
2023-04-22T23:57:30.088Z,96.80
2023-04-22T23:59:59.624Z,96.70
